Time;durP1;ratioP1;P1;durP2;ratioP2;P2;SDS_P1;SDS_P2;PMS_P1;PMS_P2;Temp;Humidity;BMP_temperature;BMP_pressure;BME280_temperature;BME280_humidity;BME280_pressure;Samples;Min_cycle;Max_cycle;Signal;HPM_P1;HPM_P2
2023/01/22 00:02:15;;;;;;;20.85;9.00;;;;;;;;;;5032448;28;20033;-77
2023/01/22 00:04:41;;;;;;;26.55;9.38;;;;;;;;;;5025958;28;20251;-77
2023/01/22 00:07:06;;;;;;;20.65;9.43;;;;;;;;;;5025200;28;20067;-77
2023/01/22 00:09:32;;;;;;;22.33;8.88;;;;;;;;;;5032357;28;20124;-77
2023/01/22 00:11:57;;;;;;;20.40;9.07;;;;;;;;;;5031194;28;20423;-76
2023/01/22 00:14:23;;;;;;;18.48;8.68;;;;;;;;;;5031967;28;20096;-76
2023/01/22 00:16:48;;;;;;;21.42;8.43;;;;;;;;;;5031106;28;20083;-76
2023/01/22 00:19:14;;;;;;;19.40;9.07;;;;;;;;;;5030570;28;20091;-75
2023/01/22 00:21:39;;;;;;;23.80;9.38;;;;;;;;;;5031786;28;20101;-76
2023/01/22 00:24:05;;;;;;;17.83;8.63;;;;;;;;;;5029895;28;20084;-76
2023/01/22 00:26:30;;;;;;;19.55;8.75;;;;;;;;;;5027524;28;20021;-76
2023/01/22 00:28:56;;;;;;;20.13;9.18;;;;;;;;;;5030077;28;20056;-76
2023/01/22 00:31:22;;;;;;;18.30;8.93;;;;;;;;;;5028226;28;20034;-77
2023/01/22 00:33:47;;;;;;;21.60;9.40;;;;;;;;;;5043984;28;20037;-77
2023/01/22 00:36:14;;;;;;;17.05;8.88;;;;;;;;;;5030559;28;20026;-77
2023/01/22 00:38:39;;;;;;;22.15;9.30;;;;;;;;;;5025454;28;20051;-77
2023/01/22 00:41:06;;;;;;;22.10;9.75;;;;;;;;;;5044978;28;20029;-77
2023/01/22 00:43:32;;;;;;;20.98;10.38;;;;;;;;;;5031832;28;20467;-76
2023/01/22 00:45:57;;;;;;;;;;;;;;;;;;5030339;28;20433;-77
2023/01/22 00:48:24;;;;;;;26.10;9.73;;;;;;;;;;5030012;28;19962;-76
2023/01/22 00:50:50;;;;;;;21.70;9.65;;;;;;;;;;5030652;28;20419;-76
2023/01/22 00:53:15;;;;;;;20.45;9.52;;;;;;;;;;5014710;28;20045;-77
2023/01/22 00:55:49;;;;;;;24.55;9.43;;;;;;;;;;5032080;28;20025;-77
2023/01/22 00:58:14;;;;;;;20.45;9.93;;;;;;;;;;5014067;28;20034;-77
2023/01/22 01:00:40;;;;;;;23.05;9.93;;;;;;;;;;5030907;28;20112;-77
2023/01/22 01:05:50;;;;;;;22.15;8.85;;;;;;;;;;5037070;28;20029;-77
2023/01/22 01:08:16;;;;;;;21.17;10.18;;;;;;;;;;5024252;28;20025;-77
2023/01/22 01:10:41;;;;;;;24.08;10.18;;;;;;;;;;5030805;28;20064;-77
2023/01/22 01:13:07;;;;;;;20.17;9.23;;;;;;;;;;5022639;28;20054;-77
2023/01/22 01:15:33;;;;;;;19.40;9.57;;;;;;;;;;5012960;28;20042;-78
2023/01/22 01:18:00;;;;;;;20.35;9.07;;;;;;;;;;5030915;28;20036;-78
2023/01/22 01:20:25;;;;;;;22.83;8.80;;;;;;;;;;5013292;28;20041;-78
2023/01/22 01:22:51;;;;;;;19.52;9.05;;;;;;;;;;5031160;28;20083;-77
2023/01/22 01:25:17;;;;;;;22.02;10.13;;;;;;;;;;5030746;28;20400;-77
2023/01/22 01:27:42;;;;;;;19.42;9.13;;;;;;;;;;5014216;28;20361;-77
2023/01/22 01:30:08;;;;;;;25.02;9.07;;;;;;;;;;5029160;28;20124;-77
2023/01/22 01:32:33;;;;;;;22.48;9.50;;;;;;;;;;5030385;28;20502;-77
2023/01/22 01:34:59;;;;;;;20.98;9.57;;;;;;;;;;5031855;28;20033;-77
2023/01/22 01:37:24;;;;;;;23.25;9.55;;;;;;;;;;5014365;28;20026;-77
2023/01/22 01:39:51;;;;;;;19.08;9.15;;;;;;;;;;5030731;28;20524;-77
2023/01/22 01:42:21;;;;;;;19.88;9.18;;;;;;;;;;5034247;28;20056;-78
2023/01/22 01:45:07;;;;;;;25.13;10.18;;;;;;;;;;5034371;28;20488;-77
2023/01/22 01:47:33;;;;;;;22.30;10.40;;;;;;;;;;5029199;28;20095;-77
2023/01/22 01:49:58;;;;;;;25.23;10.13;;;;;;;;;;5035250;28;20030;-77
2023/01/22 01:52:24;;;;;;;29.10;11.60;;;;;;;;;;5034592;28;20040;-77
2023/01/22 01:54:50;;;;;;;;;;;;;;;;;;5018328;28;20120;-77
2023/01/22 01:57:17;;;;;;;26.30;11.00;;;;;;;;;;5035166;28;20021;-77
2023/01/22 01:59:43;;;;;;;22.02;10.20;;;;;;;;;;5034079;28;20049;-77
2023/01/22 02:02:09;;;;;;;27.95;11.30;;;;;;;;;;5033521;28;20118;-77
2023/01/22 02:04:34;;;;;;;28.60;10.10;;;;;;;;;;5033685;28;20029;-78
2023/01/22 02:07:00;;;;;;;27.38;11.20;;;;;;;;;;5033663;28;20178;-77
2023/01/22 02:09:28;;;;;;;27.27;11.23;;;;;;;;;;5033765;28;20435;-76
2023/01/22 02:11:53;;;;;;;25.58;11.80;;;;;;;;;;5034796;28;20056;-77
2023/01/22 02:14:20;;;;;;;23.35;10.60;;;;;;;;;;5033672;28;20148;-76
2023/01/22 02:16:46;;;;;;;30.40;11.40;;;;;;;;;;5016878;28;20110;-78
2023/01/22 02:19:11;;;;;;;26.38;12.90;;;;;;;;;;5016884;28;20057;-76
2023/01/22 02:21:37;;;;;;;27.85;11.32;;;;;;;;;;5032436;28;20366;-76
2023/01/22 02:24:03;;;;;;;33.10;13.10;;;;;;;;;;5045814;28;20044;-78
2023/01/22 02:26:29;;;;;;;26.58;11.25;;;;;;;;;;5033356;28;20037;-77
2023/01/22 02:28:54;;;;;;;26.38;11.63;;;;;;;;;;5050306;28;20036;-78
2023/01/22 02:31:24;;;;;;;24.13;11.05;;;;;;;;;;5033463;28;20041;-77
2023/01/22 02:33:49;;;;;;;27.77;11.88;;;;;;;;;;5033118;28;20552;-77
2023/01/22 02:36:15;;;;;;;26.58;11.50;;;;;;;;;;5016249;28;20041;-77
2023/01/22 02:38:41;;;;;;;23.90;11.35;;;;;;;;;;5013318;28;20025;-77
2023/01/22 02:41:06;;;;;;;31.63;11.73;;;;;;;;;;5028491;28;20042;-77
2023/01/22 02:43:32;;;;;;;25.27;10.57;;;;;;;;;;5044182;28;20037;-77
2023/01/22 02:45:57;;;;;;;31.73;11.80;;;;;;;;;;5042653;28;20044;-77
2023/01/22 02:48:23;;;;;;;28.55;12.20;;;;;;;;;;5049216;28;20037;-76
2023/01/22 02:50:48;;;;;;;27.65;12.52;;;;;;;;;;5049405;28;20041;-77
2023/01/22 02:53:14;;;;;;;21.58;10.80;;;;;;;;;;5053441;28;20116;-76
2023/01/22 02:55:40;;;;;;;25.83;10.85;;;;;;;;;;5056551;28;20064;-77
2023/01/22 02:58:07;;;;;;;30.75;12.00;;;;;;;;;;5033854;28;20084;-77
2023/01/22 03:00:33;;;;;;;27.45;11.50;;;;;;;;;;5016486;28;20519;-78
2023/01/22 03:02:58;;;;;;;32.85;12.35;;;;;;;;;;5050128;28;20084;-77
2023/01/22 03:05:25;;;;;;;29.33;11.43;;;;;;;;;;5037231;28;20488;-77
2023/01/22 03:07:50;;;;;;;25.95;11.60;;;;;;;;;;5032513;28;20036;-78
2023/01/22 03:10:16;;;;;;;30.08;11.95;;;;;;;;;;5037577;28;20032;-77
2023/01/22 03:21:14;;;;;;;26.35;12.30;;;;;;;;;;5026180;28;20037;-77
2023/01/22 03:23:41;;;;;;;29.42;12.90;;;;;;;;;;5043016;28;20054;-77
2023/01/22 03:26:06;;;;;;;;;;;;;;;;;;5032534;28;20056;-77
2023/01/22 03:28:33;;;;;;;26.02;11.82;;;;;;;;;;5032007;28;19913;-78
2023/01/22 03:30:58;;;;;;;23.80;10.95;;;;;;;;;;5015645;28;20472;-77
2023/01/22 03:33:24;;;;;;;25.20;10.82;;;;;;;;;;5031938;28;20037;-77
2023/01/22 03:35:49;;;;;;;28.15;11.93;;;;;;;;;;5032251;28;20538;-77
2023/01/22 03:38:18;;;;;;;30.92;12.77;;;;;;;;;;5031773;28;20476;-77
2023/01/22 03:40:44;;;;;;;30.00;11.38;;;;;;;;;;5015697;28;20053;-77
2023/01/22 03:43:09;;;;;;;27.25;11.73;;;;;;;;;;5031598;28;20042;-77
2023/01/22 03:45:34;;;;;;;24.10;10.50;;;;;;;;;;5031913;28;20510;-78
2023/01/22 03:48:02;;;;;;;28.65;11.48;;;;;;;;;;5011963;28;20037;-78
2023/01/22 03:50:33;;;;;;;31.05;12.20;;;;;;;;;;5024276;28;20030;-77
2023/01/22 03:52:59;;;;;;;28.50;12.25;;;;;;;;;;5031651;28;20029;-77
2023/01/22 03:55:25;;;;;;;29.95;11.57;;;;;;;;;;5051430;28;20407;-77
2023/01/22 03:57:51;;;;;;;29.02;12.18;;;;;;;;;;5036191;28;20033;-78
2023/01/22 04:00:18;;;;;;;28.08;11.93;;;;;;;;;;5031447;28;20507;-78
2023/01/22 04:02:44;;;;;;;25.73;10.70;;;;;;;;;;5047895;28;20033;-77
2023/01/22 04:05:18;;;;;;;24.50;10.50;;;;;;;;;;5031767;28;20033;-77
2023/01/22 04:07:43;;;;;;;22.58;10.48;;;;;;;;;;5031735;28;20530;-77
2023/01/22 04:10:09;;;;;;;;;;;;;;;;;;5020868;28;20028;-77
2023/01/22 04:12:35;;;;;;;25.48;10.88;;;;;;;;;;5047837;28;19936;-78
2023/01/22 04:15:00;;;;;;;30.10;12.23;;;;;;;;;;5049241;28;20128;-78
2023/01/22 04:17:26;;;;;;;24.80;11.18;;;;;;;;;;5048048;28;20038;-78
2023/01/22 04:20:20;;;;;;;26.48;11.65;;;;;;;;;;5011716;28;20060;-78
2023/01/22 04:22:58;;;;;;;27.10;11.35;;;;;;;;;;5032822;28;20086;-77
2023/01/22 04:25:23;;;;;;;29.17;11.40;;;;;;;;;;5032154;28;20041;-77
2023/01/22 04:27:49;;;;;;;26.58;10.95;;;;;;;;;;5042554;28;20044;-78
2023/01/22 04:30:17;;;;;;;31.10;12.02;;;;;;;;;;5030969;28;20091;-78
2023/01/22 04:32:45;;;;;;;30.60;11.90;;;;;;;;;;5015236;28;20116;-78
2023/01/22 04:35:20;;;;;;;28.05;11.43;;;;;;;;;;5046112;28;20480;-79
2023/01/22 04:37:52;;;;;;;28.52;12.98;;;;;;;;;;5047368;28;20517;-78
2023/01/22 04:40:19;;;;;;;32.30;13.23;;;;;;;;;;5032200;28;20033;-78
2023/01/22 04:42:46;;;;;;;28.63;11.65;;;;;;;;;;5015113;28;20034;-76
2023/01/22 04:45:13;;;;;;;30.50;12.65;;;;;;;;;;5047319;28;20037;-77
2023/01/22 04:47:40;;;;;;;30.40;12.52;;;;;;;;;;5047394;28;20029;-78
2023/01/22 04:50:06;;;;;;;29.20;11.85;;;;;;;;;;5014543;28;20043;-77
2023/01/22 04:52:32;;;;;;;29.40;12.43;;;;;;;;;;4998366;28;20025;-78
2023/01/22 04:54:57;;;;;;;30.92;12.85;;;;;;;;;;5034234;28;20086;-78
2023/01/22 04:57:28;;;;;;;30.60;13.15;;;;;;;;;;5033607;28;20037;-77
2023/01/22 04:59:54;;;;;;;33.58;12.60;;;;;;;;;;5041643;28;20496;-77
2023/01/22 05:02:20;;;;;;;27.70;12.82;;;;;;;;;;5047380;28;20061;-76
2023/01/22 05:04:46;;;;;;;25.08;12.05;;;;;;;;;;5030832;28;20060;-76
2023/01/22 05:07:12;;;;;;;24.85;12.45;;;;;;;;;;5039074;28;20108;-78
2023/01/22 05:09:37;;;;;;;29.90;13.20;;;;;;;;;;5047372;28;20416;-77
2023/01/22 05:12:03;;;;;;;25.13;11.90;;;;;;;;;;5019927;28;20059;-78
2023/01/22 05:14:34;;;;;;;29.08;11.60;;;;;;;;;;5055057;28;20053;-78
2023/01/22 05:17:00;;;;;;;25.23;12.85;;;;;;;;;;5036849;28;20048;-79
2023/01/22 05:19:26;;;;;;;29.38;12.85;;;;;;;;;;5034801;28;20022;-78
2023/01/22 05:21:51;;;;;;;28.60;11.85;;;;;;;;;;5034256;28;20034;-78
2023/01/22 05:24:18;;;;;;;28.90;12.55;;;;;;;;;;5044239;28;20029;-77
2023/01/22 05:26:44;;;;;;;29.10;12.82;;;;;;;;;;5034265;28;20033;-77
2023/01/22 05:29:13;;;;;;;30.30;11.90;;;;;;;;;;5034335;28;20033;-77
2023/01/22 05:31:41;;;;;;;27.60;12.95;;;;;;;;;;5035190;28;20033;-79
2023/01/22 05:34:21;;;;;;;34.60;12.27;;;;;;;;;;5034621;28;20029;-77
2023/01/22 05:36:46;;;;;;;30.85;12.88;;;;;;;;;;5021809;28;20036;-77
2023/01/22 05:39:15;;;;;;;31.15;13.50;;;;;;;;;;5040865;28;20027;-78
2023/01/22 05:41:41;;;;;;;29.65;12.18;;;;;;;;;;5044879;28;20112;-78
2023/01/22 05:44:08;;;;;;;32.50;13.10;;;;;;;;;;5034280;28;20057;-77
2023/01/22 05:46:34;;;;;;;30.85;13.88;;;;;;;;;;5017492;28;20471;-78
2023/01/22 05:49:18;;;;;;;30.88;13.85;;;;;;;;;;5033825;28;20401;-77
2023/01/22 05:51:43;;;;;;;28.50;12.93;;;;;;;;;;5033755;28;20061;-78
2023/01/22 05:54:09;;;;;;;30.83;13.88;;;;;;;;;;5033908;28;20412;-78
2023/01/22 05:56:37;;;;;;;27.77;12.65;;;;;;;;;;5034274;28;20029;-78
2023/01/22 05:59:03;;;;;;;29.10;12.80;;;;;;;;;;5033929;28;20029;-79
2023/01/22 06:01:29;;;;;;;32.65;13.23;;;;;;;;;;5050006;28;20037;-78
2023/01/22 06:03:57;;;;;;;32.08;13.52;;;;;;;;;;5017577;28;20036;-79
2023/01/22 06:06:24;;;;;;;33.70;13.38;;;;;;;;;;5034006;28;20037;-78
2023/01/22 06:08:51;;;;;;;26.73;13.45;;;;;;;;;;5033802;28;20029;-77
2023/01/22 06:11:19;;;;;;;30.00;14.00;;;;;;;;;;5050366;28;20037;-77
2023/01/22 06:13:45;;;;;;;31.85;13.80;;;;;;;;;;5034742;28;20176;-78
2023/01/22 06:16:17;;;;;;;31.65;14.25;;;;;;;;;;5008009;28;20034;-79
2023/01/22 06:19:01;;;;;;;31.88;13.60;;;;;;;;;;5034010;28;20168;-77
2023/01/22 06:21:33;;;;;;;27.45;12.98;;;;;;;;;;5031608;28;20132;-78
2023/01/22 06:23:59;;;;;;;27.52;13.18;;;;;;;;;;5049764;28;20120;-79
2023/01/22 06:26:25;;;;;;;27.02;13.18;;;;;;;;;;5035917;28;20033;-78
2023/01/22 06:28:51;;;;;;;28.48;13.88;;;;;;;;;;5033335;28;20424;-78
2023/01/22 06:31:17;;;;;;;32.40;14.35;;;;;;;;;;5035160;28;20060;-78
2023/01/22 06:33:45;;;;;;;27.58;11.95;;;;;;;;;;5034410;28;20122;-78
2023/01/22 06:36:13;;;;;;;31.10;13.70;;;;;;;;;;5032034;28;20022;-78
2023/01/22 06:38:38;;;;;;;47.92;24.52;;;;;;;;;;5016795;28;20515;-78
2023/01/22 06:41:06;;;;;;;29.33;14.05;;;;;;;;;;5011340;28;20037;-78
2023/01/22 06:43:32;;;;;;;29.95;14.75;;;;;;;;;;5035614;28;20040;-80
2023/01/22 06:46:01;;;;;;;30.98;13.43;;;;;;;;;;5025856;28;20033;-78
2023/01/22 06:48:49;;;;;;;26.40;12.48;;;;;;;;;;5025919;28;20045;-79
2023/01/22 06:51:15;;;;;;;32.55;13.52;;;;;;;;;;5032821;28;20484;-78
2023/01/22 06:53:42;;;;;;;28.77;12.82;;;;;;;;;;5025942;28;20026;-78
2023/01/22 06:56:08;;;;;;;28.98;13.05;;;;;;;;;;5049476;28;20454;-78
2023/01/22 06:58:40;;;;;;;28.80;12.98;;;;;;;;;;5032683;28;20064;-80
2023/01/22 07:01:08;;;;;;;31.00;13.05;;;;;;;;;;5016832;28;20025;-78
2023/01/22 07:03:33;;;;;;;29.30;14.10;;;;;;;;;;5033990;28;20075;-77
2023/01/22 07:06:00;;;;;;;28.42;12.27;;;;;;;;;;5032545;28;20037;-79
2023/01/22 07:08:25;;;;;;;;;;;;;;;;;;5022468;28;20030;-78
2023/01/22 07:10:50;;;;;;;27.48;12.20;;;;;;;;;;5033418;28;19923;-78
2023/01/22 07:13:18;;;;;;;23.35;11.38;;;;;;;;;;5022612;28;20053;-79
2023/01/22 07:15:47;;;;;;;28.83;12.48;;;;;;;;;;5039973;28;20037;-78
2023/01/22 07:18:18;;;;;;;24.85;11.80;;;;;;;;;;5052792;28;20048;-77
2023/01/22 07:20:44;;;;;;;28.20;12.60;;;;;;;;;;5019764;28;20400;-78
2023/01/22 07:23:09;;;;;;;25.92;12.27;;;;;;;;;;5003260;28;20030;-79
2023/01/22 07:25:35;;;;;;;25.48;12.57;;;;;;;;;;5034655;28;20467;-79
2023/01/22 07:28:01;;;;;;;25.25;12.25;;;;;;;;;;5032139;28;20037;-77
2023/01/22 07:30:26;;;;;;;27.88;12.40;;;;;;;;;;5031417;28;20083;-78
2023/01/22 07:32:52;;;;;;;32.30;14.27;;;;;;;;;;5048534;28;20033;-78
2023/01/22 07:35:17;;;;;;;26.70;12.57;;;;;;;;;;5033033;28;20044;-78
2023/01/22 07:37:49;;;;;;;27.98;12.90;;;;;;;;;;5015627;28;20036;-79
2023/01/22 07:40:15;;;;;;;30.70;13.43;;;;;;;;;;5044953;28;20045;-78
2023/01/22 07:42:40;;;;;;;23.55;11.57;;;;;;;;;;5039930;28;20029;-77
2023/01/22 07:45:06;;;;;;;28.73;12.38;;;;;;;;;;5034327;28;20054;-77
2023/01/22 07:47:31;;;;;;;27.85;12.02;;;;;;;;;;5031591;28;20567;-78
2023/01/22 07:50:00;;;;;;;28.40;12.60;;;;;;;;;;5042094;28;20083;-78
2023/01/22 07:52:25;;;;;;;24.25;12.07;;;;;;;;;;5031592;28;20029;-77
2023/01/22 07:55:09;;;;;;;23.67;12.77;;;;;;;;;;5032759;28;20573;-78
2023/01/22 07:57:35;;;;;;;22.88;11.73;;;;;;;;;;5032691;28;20082;-78
2023/01/22 08:00:00;;;;;;;24.70;12.00;;;;;;;;;;5031531;28;20025;-78
2023/01/22 08:02:26;;;;;;;25.85;12.35;;;;;;;;;;5029306;28;20033;-79
2023/01/22 08:04:51;;;;;;;28.67;12.40;;;;;;;;;;5031152;28;20063;-77
2023/01/22 08:07:17;;;;;;;26.02;12.55;;;;;;;;;;5040658;28;20032;-81
2023/01/22 08:09:42;;;;;;;27.50;12.60;;;;;;;;;;5029907;28;20124;-81
2023/01/22 08:12:08;;;;;;;24.08;12.75;;;;;;;;;;5041889;28;20092;-82
2023/01/22 08:14:33;;;;;;;24.98;12.45;;;;;;;;;;5033950;28;20064;-81
2023/01/22 08:16:59;;;;;;;25.50;10.65;;;;;;;;;;5037795;28;20044;-81
2023/01/22 08:19:24;;;;;;;23.75;11.10;;;;;;;;;;5039398;28;20017;-80
2023/01/22 08:21:50;;;;;;;26.63;12.73;;;;;;;;;;5030382;28;20571;-82
2023/01/22 08:24:15;;;;;;;26.13;12.50;;;;;;;;;;5024564;28;20025;-82
2023/01/22 08:26:41;;;;;;;22.10;11.15;;;;;;;;;;5029769;28;20025;-81
2023/01/22 08:29:06;;;;;;;25.23;12.10;;;;;;;;;;5032702;28;20036;-82
2023/01/22 08:31:32;;;;;;;23.77;11.32;;;;;;;;;;5030701;28;20056;-81
2023/01/22 08:33:58;;;;;;;25.60;10.73;;;;;;;;;;5016627;28;20032;-81
2023/01/22 08:36:23;;;;;;;23.63;11.40;;;;;;;;;;5031427;28;20496;-81
2023/01/22 08:38:49;;;;;;;25.80;12.48;;;;;;;;;;5015548;28;20032;-83
2023/01/22 08:41:14;;;;;;;21.55;10.85;;;;;;;;;;5035185;28;20065;-84
2023/01/22 08:43:40;;;;;;;22.90;11.75;;;;;;;;;;5049187;28;20112;-83
2023/01/22 08:46:05;;;;;;;20.17;10.30;;;;;;;;;;5035447;28;20120;-81
2023/01/22 08:48:31;;;;;;;22.58;11.40;;;;;;;;;;5038245;28;20041;-83
2023/01/22 08:50:58;;;;;;;27.15;14.35;;;;;;;;;;5035240;28;20522;-84
2023/01/22 08:53:24;;;;;;;23.48;12.13;;;;;;;;;;5036845;28;20033;-81
2023/01/22 08:55:49;;;;;;;28.45;12.82;;;;;;;;;;5033099;28;20400;-81
2023/01/22 08:58:15;;;;;;;22.42;10.48;;;;;;;;;;5037618;28;20037;-80
2023/01/22 09:00:40;;;;;;;21.38;11.13;;;;;;;;;;5031872;28;20045;-83
2023/01/22 09:03:05;;;;;;;23.55;11.30;;;;;;;;;;5030920;28;20071;-84
2023/01/22 09:05:31;;;;;;;22.77;10.68;;;;;;;;;;5030373;28;20083;-80
2023/01/22 09:07:56;;;;;;;19.50;10.02;;;;;;;;;;5015516;28;20036;-81
2023/01/22 09:10:22;;;;;;;20.60;10.27;;;;;;;;;;5032829;28;20041;-82
2023/01/22 09:12:47;;;;;;;24.17;11.95;;;;;;;;;;5031602;28;20424;-82
2023/01/22 09:15:14;;;;;;;22.67;11.57;;;;;;;;;;5045820;28;20034;-83
2023/01/22 09:17:39;;;;;;;;;;;;;;;;;;5029818;28;20140;-82
2023/01/22 09:20:04;;;;;;;25.55;10.60;;;;;;;;;;5023779;28;20015;-82
2023/01/22 09:22:30;;;;;;;25.83;10.23;;;;;;;;;;5030948;28;20550;-82
2023/01/22 09:24:55;;;;;;;23.52;10.52;;;;;;;;;;5031449;28;20036;-81
2023/01/22 09:27:21;;;;;;;23.40;11.75;;;;;;;;;;5033501;28;20038;-80
2023/01/22 09:29:47;;;;;;;23.63;11.07;;;;;;;;;;5031236;28;20045;-81
2023/01/22 09:32:12;;;;;;;20.33;10.60;;;;;;;;;;5027105;28;20045;-83
2023/01/22 09:34:38;;;;;;;19.42;11.00;;;;;;;;;;5030988;28;20017;-83
2023/01/22 09:37:06;;;;;;;20.05;9.82;;;;;;;;;;5033413;28;20052;-82
2023/01/22 09:39:32;;;;;;;22.60;12.05;;;;;;;;;;5029859;28;20067;-83
2023/01/22 09:41:57;;;;;;;23.98;12.93;;;;;;;;;;5027284;28;20026;-82
2023/01/22 09:44:28;;;;;;;27.02;11.88;;;;;;;;;;5030206;28;20389;-82
2023/01/22 09:47:06;;;;;;;24.73;12.32;;;;;;;;;;5032502;28;20025;-83
2023/01/22 09:49:35;;;;;;;27.35;13.98;;;;;;;;;;5022185;28;20513;-83
2023/01/22 09:52:00;;;;;;;26.33;13.05;;;;;;;;;;5035403;28;20021;-82
2023/01/22 09:54:26;;;;;;;25.00;13.48;;;;;;;;;;5030798;28;20063;-83
2023/01/22 09:56:52;;;;;;;;;;;;;;;;;;5033128;28;20511;-83
2023/01/22 09:59:37;;;;;;;24.23;13.68;;;;;;;;;;5031993;28;19913;-83
2023/01/22 10:02:23;;;;;;;25.40;12.93;;;;;;;;;;5050351;28;20053;-84
2023/01/22 10:04:51;;;;;;;26.30;12.95;;;;;;;;;;5033593;28;20033;-83
2023/01/22 10:07:18;;;;;;;24.00;12.80;;;;;;;;;;5035165;28;20427;-83
2023/01/22 10:09:44;;;;;;;24.58;13.23;;;;;;;;;;5050332;28;20088;-83
2023/01/22 10:12:13;;;;;;;21.98;12.73;;;;;;;;;;5020647;28;20049;-83
2023/01/22 10:14:38;;;;;;;24.23;13.35;;;;;;;;;;5033443;28;20060;-83
2023/01/22 10:17:04;;;;;;;22.92;13.15;;;;;;;;;;5015211;28;20030;-82
2023/01/22 10:19:34;;;;;;;27.85;13.60;;;;;;;;;;5033500;28;20403;-83
2023/01/22 10:22:01;;;;;;;26.63;14.00;;;;;;;;;;5013248;28;20040;-83
2023/01/22 10:24:28;;;;;;;25.50;13.88;;;;;;;;;;5016965;28;20038;-83
2023/01/22 10:26:53;;;;;;;22.70;12.18;;;;;;;;;;5043066;28;20112;-83
2023/01/22 10:29:31;;;;;;;24.95;12.52;;;;;;;;;;5032339;28;20125;-82
2023/01/22 10:32:16;;;;;;;21.35;12.05;;;;;;;;;;5049461;28;20036;-82
2023/01/22 10:34:42;;;;;;;23.40;13.15;;;;;;;;;;5032836;28;20467;-83
2023/01/22 10:37:10;;;;;;;22.42;12.57;;;;;;;;;;5032449;28;20104;-84
2023/01/22 10:39:39;;;;;;;23.98;12.93;;;;;;;;;;5033125;28;20029;-83
2023/01/22 10:42:05;;;;;;;23.95;12.32;;;;;;;;;;5040605;28;20075;-80
2023/01/22 10:44:30;;;;;;;19.95;12.27;;;;;;;;;;5035036;28;20448;-81
2023/01/22 10:47:05;;;;;;;22.17;12.77;;;;;;;;;;5033885;28;20026;-80
2023/01/22 10:49:31;;;;;;;21.05;11.73;;;;;;;;;;5039013;28;20033;-80
2023/01/22 10:52:03;;;;;;;25.45;12.77;;;;;;;;;;5041189;28;20408;-80
2023/01/22 10:54:32;;;;;;;25.33;13.25;;;;;;;;;;5032412;28;20037;-81
2023/01/22 10:57:16;;;;;;;21.55;13.07;;;;;;;;;;5048227;28;20025;-81
2023/01/22 10:59:47;;;;;;;23.48;12.13;;;;;;;;;;5032476;28;20034;-81
2023/01/22 11:02:15;;;;;;;22.60;12.27;;;;;;;;;;5032356;28;20120;-81
2023/01/22 11:04:41;;;;;;;24.98;13.90;;;;;;;;;;5015082;28;20084;-80
2023/01/22 11:07:18;;;;;;;25.88;13.38;;;;;;;;;;5032406;28;20041;-81
2023/01/22 11:09:44;;;;;;;29.70;13.90;;;;;;;;;;5032114;28;20029;-80
2023/01/22 11:12:11;;;;;;;26.10;14.25;;;;;;;;;;5042633;28;20075;-79
2023/01/22 11:14:37;;;;;;;23.65;12.98;;;;;;;;;;5014213;28;20053;-81
2023/01/22 11:17:10;;;;;;;23.02;13.25;;;;;;;;;;5034365;28;20033;-81
2023/01/22 11:19:40;;;;;;;21.45;12.60;;;;;;;;;;5034199;28;20033;-81
2023/01/22 11:22:10;;;;;;;21.40;12.38;;;;;;;;;;5051127;28;20033;-80
2023/01/22 11:24:37;;;;;;;26.27;13.70;;;;;;;;;;5033227;28;20033;-79
2023/01/22 11:27:19;;;;;;;23.20;13.73;;;;;;;;;;5031071;28;20073;-79
2023/01/22 11:30:03;;;;;;;26.05;14.02;;;;;;;;;;5030655;28;20045;-81
2023/01/22 11:32:47;;;;;;;26.55;13.73;;;;;;;;;;5022865;28;20044;-81
2023/01/22 11:35:28;;;;;;;26.38;14.18;;;;;;;;;;5046866;28;20566;-80
2023/01/22 11:37:56;;;;;;;27.23;14.23;;;;;;;;;;5031998;28;20033;-80
2023/01/22 11:40:22;;;;;;;27.30;13.50;;;;;;;;;;5046446;28;20428;-80
2023/01/22 11:42:50;;;;;;;26.92;13.13;;;;;;;;;;5039499;28;20043;-80
2023/01/22 11:45:22;;;;;;;27.45;13.95;;;;;;;;;;5034620;28;20159;-80
2023/01/22 11:47:53;;;;;;;27.58;13.68;;;;;;;;;;5033424;28;20071;-81
2023/01/22 11:50:19;;;;;;;27.05;13.30;;;;;;;;;;5047244;28;20033;-81
2023/01/22 11:52:47;;;;;;;24.50;12.77;;;;;;;;;;5030590;28;20025;-81
2023/01/22 11:55:13;;;;;;;21.05;12.18;;;;;;;;;;5030989;28;20147;-80
2023/01/22 11:57:45;;;;;;;25.48;13.40;;;;;;;;;;5031615;28;20057;-80
2023/01/22 12:00:20;;;;;;;24.40;13.15;;;;;;;;;;5047279;28;20037;-80
2023/01/22 12:02:51;;;;;;;23.95;12.55;;;;;;;;;;5047431;28;20042;-81
2023/01/22 12:05:29;;;;;;;20.95;13.73;;;;;;;;;;5030714;28;20033;-82
2023/01/22 12:07:57;;;;;;;21.77;11.77;;;;;;;;;;5032065;28;20037;-81
2023/01/22 12:10:26;;;;;;;24.02;12.25;;;;;;;;;;5046664;28;20060;-80
2023/01/22 12:12:54;;;;;;;23.05;11.48;;;;;;;;;;5046047;28;20044;-80
2023/01/22 12:15:29;;;;;;;22.00;12.35;;;;;;;;;;5026983;28;20069;-80
2023/01/22 12:18:13;;;;;;;19.42;10.75;;;;;;;;;;5033552;28;20029;-79
2023/01/22 12:20:42;;;;;;;18.88;11.13;;;;;;;;;;5028740;28;20095;-81
2023/01/22 12:23:09;;;;;;;19.83;11.65;;;;;;;;;;5045179;28;20056;-80
2023/01/22 12:25:43;;;;;;;19.45;10.85;;;;;;;;;;5029997;28;20497;-80
2023/01/22 12:28:09;;;;;;;17.67;10.13;;;;;;;;;;5014316;28;20086;-80
2023/01/22 12:30:37;;;;;;;18.02;10.25;;;;;;;;;;5044074;28;20484;-79
2023/01/22 12:33:03;;;;;;;21.73;10.50;;;;;;;;;;5028352;28;20032;-81
2023/01/22 12:35:29;;;;;;;20.08;10.77;;;;;;;;;;5029236;28;20021;-82
2023/01/22 12:37:54;;;;;;;;;;;;;;;;;;5030727;28;20040;-79
2023/01/22 12:40:26;;;;;;;15.85;8.93;;;;;;;;;;5030002;28;19909;-79
2023/01/22 12:43:02;;;;;;;16.88;8.57;;;;;;;;;;5031535;28;20522;-79
2023/01/22 12:45:36;;;;;;;18.13;9.00;;;;;;;;;;5027172;28;20033;-80
2023/01/22 12:48:02;;;;;;;20.15;8.77;;;;;;;;;;5029523;28;20041;-79
2023/01/22 12:50:28;;;;;;;17.45;9.05;;;;;;;;;;5030576;28;20505;-79
2023/01/22 12:52:57;;;;;;;16.20;9.35;;;;;;;;;;5028304;28;20124;-80
2023/01/22 12:55:37;;;;;;;21.38;10.38;;;;;;;;;;5031856;28;20461;-78
2023/01/22 12:58:02;;;;;;;20.13;9.77;;;;;;;;;;5012644;28;20128;-79
2023/01/22 13:00:32;;;;;;;15.32;9.00;;;;;;;;;;5030397;28;20121;-79
2023/01/22 13:02:58;;;;;;;21.75;10.00;;;;;;;;;;5009685;28;20041;-78
2023/01/22 13:05:29;;;;;;;19.73;9.90;;;;;;;;;;5010847;28;20547;-78
2023/01/22 13:08:02;;;;;;;18.40;9.50;;;;;;;;;;5028761;28;20029;-78
2023/01/22 13:10:28;;;;;;;19.10;10.15;;;;;;;;;;5026196;28;20030;-79
2023/01/22 13:12:58;;;;;;;19.27;9.73;;;;;;;;;;5029179;28;20018;-79
2023/01/22 13:15:28;;;;;;;17.55;8.55;;;;;;;;;;5039829;28;20034;-80
2023/01/22 13:18:00;;;;;;;17.23;8.25;;;;;;;;;;5013693;28;20028;-79
2023/01/22 13:20:26;;;;;;;14.65;8.10;;;;;;;;;;5030729;28;20049;-79
2023/01/22 13:22:53;;;;;;;15.10;8.93;;;;;;;;;;5028378;28;20033;-78
2023/01/22 13:25:23;;;;;;;17.67;9.10;;;;;;;;;;5027835;28;20061;-79
2023/01/22 13:27:48;;;;;;;17.17;9.30;;;;;;;;;;5027708;28;20382;-78
2023/01/22 13:30:18;;;;;;;18.83;9.88;;;;;;;;;;5029901;28;20040;-79
2023/01/22 13:32:43;;;;;;;15.73;8.68;;;;;;;;;;5033172;28;20034;-80
2023/01/22 13:35:10;;;;;;;16.23;9.15;;;;;;;;;;5033210;28;20369;-79
2023/01/22 13:37:37;;;;;;;19.77;9.60;;;;;;;;;;5032386;28;20017;-79
2023/01/22 13:40:20;;;;;;;18.15;10.27;;;;;;;;;;5028674;28;21312;-80
2023/01/22 13:42:48;;;;;;;18.85;9.55;;;;;;;;;;5017381;28;20086;-78
2023/01/22 13:45:15;;;;;;;17.95;8.65;;;;;;;;;;5015356;28;20037;-79
2023/01/22 13:47:40;;;;;;;18.88;9.90;;;;;;;;;;5015990;28;20799;-79
2023/01/22 13:50:16;;;;;;;16.85;8.95;;;;;;;;;;5030014;28;20037;-79
2023/01/22 13:52:41;;;;;;;20.48;9.57;;;;;;;;;;5016342;28;20040;-79
2023/01/22 13:55:15;;;;;;;15.68;8.73;;;;;;;;;;5035363;28;20021;-79
2023/01/22 13:57:47;;;;;;;19.35;10.55;;;;;;;;;;5032318;28;20033;-78
2023/01/22 14:00:32;;;;;;;16.60;8.73;;;;;;;;;;5032064;28;20087;-81
2023/01/22 14:02:57;;;;;;;18.02;9.93;;;;;;;;;;5030697;28;20500;-79
2023/01/22 14:05:27;;;;;;;16.27;9.00;;;;;;;;;;5035147;28;20120;-80
2023/01/22 14:08:05;;;;;;;21.17;9.88;;;;;;;;;;5031339;28;20167;-79
2023/01/22 14:10:31;;;;;;;17.05;9.63;;;;;;;;;;5029059;28;20033;-80
2023/01/22 14:13:00;;;;;;;20.00;10.82;;;;;;;;;;5032159;28;20075;-79
2023/01/22 14:15:26;;;;;;;20.13;11.48;;;;;;;;;;5036321;28;20496;-78
2023/01/22 14:17:51;;;;;;;20.33;10.82;;;;;;;;;;5030946;28;20176;-77
2023/01/22 14:20:17;;;;;;;20.05;10.48;;;;;;;;;;5031314;28;20377;-78
2023/01/22 14:22:42;;;;;;;16.95;9.82;;;;;;;;;;5031373;28;20022;-78
2023/01/22 14:25:08;;;;;;;21.20;10.40;;;;;;;;;;5032758;28;20048;-77
2023/01/22 14:27:41;;;;;;;19.88;10.30;;;;;;;;;;5042191;28;20038;-79
2023/01/22 14:30:07;;;;;;;22.20;11.18;;;;;;;;;;5014228;28;20065;-79
2023/01/22 14:32:33;;;;;;;19.15;10.48;;;;;;;;;;5032503;28;20017;-80
2023/01/22 14:35:00;;;;;;;20.10;10.50;;;;;;;;;;5038540;28;20104;-80
2023/01/22 14:37:25;;;;;;;20.38;10.68;;;;;;;;;;5031514;28;20059;-79
2023/01/22 14:39:51;;;;;;;20.00;10.50;;;;;;;;;;5031109;28;20037;-78